Time;durP1;ratioP1;P1;durP2;ratioP2;P2;SDS_P1;SDS_P2;PMS_P1;PMS_P2;Temp;Humidity;BMP_temperature;BMP_pressure;BME280_temperature;BME280_humidity;BME280_pressure;Samples;Min_cycle;Max_cycle;Signal;HPM_P1;HPM_P2
2021/01/15 00:02:48;;;;;;;20.83;11.63;;;;;;;-4.27;82.36;99324.45;492962;1145;65108;-69
2021/01/15 00:12:53;;;;;;;19.43;10.07;;;;;;;-4.24;82.89;99329.58;493855;1145;65197;-69
2021/01/15 00:22:56;;;;;;;17.53;8.73;;;;;;;-4.22;82.01;99340.67;493282;1144;65108;-68
2021/01/15 00:33:00;;;;;;;20.17;11.40;;;;;;;-4.20;82.80;99340.67;493175;1145;65207;-67
2021/01/15 00:43:08;;;;;;;21.75;13.70;;;;;;;-4.25;81.45;99338.14;493519;1144;65190;-67
2021/01/15 00:53:15;;;;;;;17.60;10.57;;;;;;;-4.46;81.13;99360.50;493054;1144;65178;-66
2021/01/15 01:03:22;;;;;;;11.70;7.37;;;;;;;-4.84;79.68;99359.84;493183;1144;65172;-67
2021/01/15 01:13:27;;;;;;;12.43;8.20;;;;;;;-5.05;80.58;99381.29;493122;1144;65423;-66
2021/01/15 01:23:31;;;;;;;10.43;4.97;;;;;;;-5.24;79.26;99395.86;493106;1144;65130;-68
2021/01/15 01:33:36;;;;;;;14.57;8.90;;;;;;;-5.38;79.32;99418.92;493309;1145;65111;-68
2021/01/15 01:43:40;;;;;;;11.47;7.17;;;;;;;-5.55;79.10;99417.22;493873;1144;65449;-68
2021/01/15 01:53:44;;;;;;;12.10;7.90;;;;;;;-5.68;78.32;99431.75;492938;1144;65410;-67
2021/01/15 02:03:48;;;;;;;9.43;6.20;;;;;;;-5.95;78.05;99438.54;492847;1144;65209;-68
2021/01/15 02:14:03;;;;;;;9.57;5.90;;;;;;;-6.38;77.96;99464.08;493734;1144;65184;-68
2021/01/15 02:24:25;;;;;;;8.78;5.40;;;;;;;-6.67;78.37;99477.59;493639;1145;65575;-67
2021/01/15 02:34:37;;;;;;;8.80;4.45;;;;;;;-7.00;78.83;99496.98;493167;1144;65223;-67
2021/01/15 02:44:47;;;;;;;8.93;5.83;;;;;;;-7.38;78.87;99518.88;493046;1144;65204;-67
2021/01/15 02:54:51;;;;;;;7.10;3.95;;;;;;;-7.75;79.11;99519.41;493747;1147;66530;-67
2021/01/15 03:04:59;;;;;;;8.10;4.80;;;;;;;-8.02;79.60;99529.34;493313;1144;65175;-67
2021/01/15 03:15:07;;;;;;;9.17;4.90;;;;;;;-8.26;79.70;99539.27;494063;1144;65206;-69
2021/01/15 03:25:15;;;;;;;8.50;5.65;;;;;;;-8.37;79.60;99539.11;493222;1145;65144;-69
2021/01/15 03:35:28;;;;;;;8.33;5.57;;;;;;;-8.27;79.79;99556.23;493775;1145;65538;-67
2021/01/15 03:45:32;;;;;;;10.07;6.87;;;;;;;-8.16;79.79;99567.40;493647;1144;65610;-67
2021/01/15 03:55:36;;;;;;;12.13;6.77;;;;;;;-7.96;79.84;99566.78;493099;1144;65203;-67
2021/01/15 04:05:42;;;;;;;10.85;6.05;;;;;;;-7.81;79.74;99560.13;493044;1145;65140;-67
2021/01/15 04:15:48;;;;;;;6.33;4.57;;;;;;;-7.58;79.78;99557.81;493578;1144;65136;-67
2021/01/15 04:25:52;;;;;;;10.93;6.17;;;;;;;-7.37;79.67;99539.28;493314;1144;65495;-66
2021/01/15 04:35:56;;;;;;;8.57;5.17;;;;;;;-7.16;79.38;99547.95;493054;1145;65140;-66
2021/01/15 04:46:04;;;;;;;8.77;5.47;;;;;;;-7.09;79.43;99538.63;493375;1144;65614;-66
2021/01/15 04:56:15;;;;;;;10.20;5.93;;;;;;;-6.93;79.20;99542.15;493976;1144;65115;-67
2021/01/15 05:06:26;;;;;;;9.20;5.70;;;;;;;-6.90;78.96;99540.47;493008;1146;65238;-67
2021/01/15 05:16:31;;;;;;;9.10;6.33;;;;;;;-6.88;78.89;99550.67;492874;1145;65118;-66
2021/01/15 05:26:36;;;;;;;14.50;6.85;;;;;;;-7.06;79.17;99542.06;493365;1145;65115;-66
2021/01/15 05:36:40;;;;;;;8.30;5.83;;;;;;;-6.96;79.22;99540.42;493850;1145;65565;-66
2021/01/15 05:46:50;;;;;;;10.70;8.43;;;;;;;-6.99;79.11;99542.96;493304;1144;65524;-67
2021/01/15 05:56:54;;;;;;;8.00;6.65;;;;;;;-7.01;79.09;99575.28;493470;1144;65127;-67
2021/01/15 06:07:16;;;;;;;10.82;6.97;;;;;;;-6.96;78.99;99562.56;493162;1144;65131;-68
2021/01/15 06:17:24;;;;;;;12.55;8.40;;;;;;;-7.02;79.21;99572.71;493053;1145;65121;-66
2021/01/15 06:27:35;;;;;;;16.77;9.33;;;;;;;-6.94;78.81;99574.47;493390;1145;65126;-68
2021/01/15 06:37:44;;;;;;;14.83;8.63;;;;;;;-6.93;79.03;99570.23;493859;1144;65142;-67
2021/01/15 06:47:53;;;;;;;25.60;12.97;;;;;;;-6.86;78.92;99581.34;493376;1145;65155;-67
2021/01/15 06:58:05;;;;;;;24.43;15.37;;;;;;;-6.85;79.10;99583.91;493850;1144;65201;-67
2021/01/15 07:08:11;;;;;;;23.50;11.70;;;;;;;-6.80;78.75;99633.30;493469;1143;65448;-68
2021/01/15 07:18:32;;;;;;;19.77;10.90;;;;;;;-6.94;79.39;99633.19;493221;1144;65244;-67
2021/01/15 07:28:37;;;;;;;17.67;12.30;;;;;;;-6.91;79.16;99647.69;493303;1144;65210;-66
2021/01/15 07:39:01;;;;;;;13.90;9.40;;;;;;;-6.93;79.49;99652.77;485636;1144;10001790;-67
2021/01/15 07:49:05;;;;;;;14.00;9.65;;;;;;;-6.91;79.19;99658.77;492627;1143;65607;-67
2021/01/15 07:59:09;;;;;;;17.80;10.15;;;;;;;-7.01;79.04;99658.66;492873;1144;65204;-66
2021/01/15 08:09:13;;;;;;;21.05;9.90;;;;;;;-7.01;79.53;99651.00;493353;1142;65108;-65
2021/01/15 08:19:19;;;;;;;17.85;9.95;;;;;;;-6.86;79.28;99653.70;493075;1144;65329;-66
2021/01/15 08:29:22;;;;;;;;;;;;;;;-6.58;79.26;99658.13;493139;1145;65172;-65
2021/01/15 08:39:26;;;;;;;19.13;10.33;;;;;;;-6.35;79.79;99659.17;492359;1145;65187;-59
2021/01/15 08:49:32;;;;;;;19.83;11.67;;;;;;;-6.15;79.17;99686.52;492740;1144;65113;-64
2021/01/15 08:59:38;;;;;;;18.37;11.93;;;;;;;-6.20;79.20;99686.49;493282;1144;65194;-69
2021/01/15 09:09:42;;;;;;;19.92;12.40;;;;;;;-5.96;78.95;99687.44;493366;1144;65201;-74
2021/01/15 09:19:50;;;;;;;18.03;10.33;;;;;;;-5.58;78.43;99687.61;493261;1144;65423;-74
2021/01/15 09:29:53;;;;;;;15.93;9.53;;;;;;;-5.28;78.24;99674.05;493367;1144;65134;-67
2021/01/15 09:39:57;;;;;;;19.95;13.60;;;;;;;-5.01;77.15;99666.41;494088;1144;65518;-62
2021/01/15 09:50:02;;;;;;;26.40;12.35;;;;;;;-4.74;77.32;99657.84;493010;1144;66697;-58
2021/01/15 10:00:15;;;;;;;22.87;13.27;;;;;;;-4.62;76.67;99656.13;493146;1144;65342;-58
2021/01/15 10:10:21;;;;;;;14.85;9.48;;;;;;;-4.33;77.24;99653.52;493108;1144;65137;-60
2021/01/15 10:20:25;;;;;;;14.23;10.75;;;;;;;-4.08;76.32;99633.80;493344;1144;65219;-59
2021/01/15 10:30:30;;;;;;;14.63;9.30;;;;;;;-3.58;76.11;99643.87;493067;1143;65177;-58
2021/01/15 10:40:34;;;;;;;14.47;8.30;;;;;;;-3.48;75.00;99646.36;492840;1144;65127;-59
2021/01/15 10:50:40;;;;;;;12.33;8.03;;;;;;;-3.45;74.99;99631.80;492787;1144;65143;-64
2021/01/15 11:00:44;;;;;;;13.13;7.97;;;;;;;-3.34;74.35;99634.31;493231;1143;65497;-60
2021/01/15 11:10:48;;;;;;;11.90;7.60;;;;;;;-3.22;74.24;99617.12;493825;1146;65586;-60
2021/01/15 11:20:52;;;;;;;13.83;8.73;;;;;;;-3.33;73.76;99612.91;493426;1145;65191;-60
2021/01/15 11:30:56;;;;;;;15.90;10.30;;;;;;;-3.34;72.83;99605.20;493408;1146;65564;-61
2021/01/15 11:41:04;;;;;;;16.70;10.53;;;;;;;-3.18;73.50;99582.83;493611;1146;65548;-62
2021/01/15 11:51:10;;;;;;;11.90;8.60;;;;;;;-3.24;72.95;99573.45;493335;1147;65203;-68
2021/01/15 12:01:17;;;;;;;12.70;7.70;;;;;;;-3.28;72.76;99562.34;493244;1144;65141;-65
2021/01/15 12:11:21;;;;;;;12.67;8.10;;;;;;;-3.50;72.58;99577.07;493685;1143;65472;-69
2021/01/15 12:21:26;;;;;;;11.30;7.15;;;;;;;-3.34;72.93;99557.28;494057;1144;65745;-67
2021/01/15 12:31:29;;;;;;;14.73;9.23;;;;;;;-3.52;73.30;99558.23;493620;1144;65211;-71
2021/01/15 12:41:37;;;;;;;13.15;9.30;;;;;;;-3.59;73.72;99559.99;493351;1143;65124;-69
2021/01/15 12:51:43;;;;;;;18.40;11.00;;;;;;;-3.57;74.06;99555.73;493063;1144;65143;-68
2021/01/15 13:01:49;;;;;;;21.40;12.57;;;;;;;-3.52;75.40;99551.40;493171;1145;65108;-67
2021/01/15 13:11:53;;;;;;;26.27;14.40;;;;;;;-3.59;75.44;99546.33;492721;1144;65150;-65
2021/01/15 13:21:58;;;;;;;25.20;15.13;;;;;;;-3.61;76.31;99520.66;493104;1144;65220;-67
2021/01/15 13:32:02;;;;;;;28.75;16.40;;;;;;;-3.81;76.68;99525.93;484432;1144;10001416;-68
2021/01/15 13:42:06;;;;;;;33.80;19.40;;;;;;;-3.88;77.77;99531.95;493059;1144;65124;-68
2021/01/15 13:52:13;;;;;;;31.97;18.10;;;;;;;-3.81;78.38;99526.80;492495;1144;65237;-72
2021/01/15 14:02:17;;;;;;;33.33;17.30;;;;;;;-3.95;79.35;99529.44;492780;1144;65190;-71
2021/01/15 14:12:21;;;;;;;39.37;21.87;;;;;;;-4.08;79.76;99530.37;493275;1144;65130;-67
2021/01/15 14:22:25;;;;;;;36.53;20.37;;;;;;;-4.05;79.50;99537.17;493278;1144;65108;-64
2021/01/15 14:32:29;;;;;;;30.70;18.15;;;;;;;-4.02;79.77;99540.58;493004;1145;65130;-67
2021/01/15 14:42:36;;;;;;;25.93;14.93;;;;;;;-3.95;80.21;99549.09;492958;1144;65612;-68
2021/01/15 14:52:46;;;;;;;17.75;12.45;;;;;;;-3.89;80.88;99551.64;492880;1145;65576;-67
2021/01/15 15:02:51;;;;;;;22.50;12.00;;;;;;;-3.75;80.39;99546.44;493306;1144;65111;-69
2021/01/15 15:12:57;;;;;;;18.90;11.57;;;;;;;-3.80;80.35;99543.89;492565;1144;65355;-72
2021/01/15 15:23:02;;;;;;;16.50;10.87;;;;;;;-3.88;80.35;99555.91;494802;1144;65130;-66
2021/01/15 15:33:09;;;;;;;17.50;11.37;;;;;;;-3.88;81.07;99561.03;492776;1144;65120;-69
2021/01/15 15:43:14;;;;;;;21.83;15.00;;;;;;;-3.90;81.50;99569.59;493310;1144;65334;-65
2021/01/15 15:53:18;;;;;;;22.60;13.87;;;;;;;-3.89;80.85;99569.59;492865;1144;65140;-65
2021/01/15 16:03:24;;;;;;;21.40;13.13;;;;;;;-3.97;81.69;99566.20;492592;1144;65169;-71
2021/01/15 16:13:28;;;;;;;25.20;13.53;;;;;;;-4.07;81.11;99578.23;492492;1144;65551;-65
2021/01/15 16:23:32;;;;;;;17.93;12.17;;;;;;;-4.08;81.70;99585.06;493374;1144;65143;-63
2021/01/15 16:33:37;;;;;;;18.40;12.37;;;;;;;-4.14;80.48;99582.54;492661;1144;65232;-59
2021/01/15 16:43:41;;;;;;;11.35;9.30;;;;;;;-4.19;80.67;99596.23;493054;1144;65178;-59
2021/01/15 16:53:45;;;;;;;13.37;7.67;;;;;;;-4.23;80.37;99609.05;492709;1144;65157;-59
2021/01/15 17:03:49;;;;;;;17.95;11.05;;;;;;;-4.18;79.87;99616.73;493103;1144;65133;-60
2021/01/15 17:13:53;;;;;;;16.07;8.40;;;;;;;-4.11;79.71;99632.95;492626;1144;65117;-59
2021/01/15 17:23:57;;;;;;;18.67;8.10;;;;;;;-4.37;77.02;99641.58;493380;1145;65654;-60
2021/01/15 17:34:01;;;;;;;8.03;4.83;;;;;;;-4.68;76.04;99645.04;492733;1144;65121;-63
2021/01/15 17:44:19;;;;;;;12.90;7.17;;;;;;;-4.89;76.19;99660.42;492857;1145;65114;-60
2021/01/15 17:54:23;;;;;;;10.17;6.73;;;;;;;-5.01;75.44;99672.36;493274;1143;65159;-63
2021/01/15 18:04:30;;;;;;;10.53;7.93;;;;;;;-5.11;76.00;99679.19;493169;1143;65260;-63
2021/01/15 18:14:35;;;;;;;14.80;7.60;;;;;;;-5.28;75.36;99696.22;493318;1144;65140;-64
2021/01/15 18:24:39;;;;;;;15.30;7.93;;;;;;;-5.47;75.66;99700.43;493891;1143;65145;-61
2021/01/15 18:34:43;;;;;;;10.67;6.33;;;;;;;-5.79;75.88;99713.09;493759;1143;65115;-65
2021/01/15 18:44:47;;;;;;;18.65;8.65;;;;;;;-6.01;75.65;99722.38;493889;1143;65455;-65
2021/01/15 18:54:51;;;;;;;14.27;8.17;;;;;;;-6.17;77.01;99724.01;493514;1144;65511;-64
2021/01/15 19:04:55;;;;;;;11.30;6.73;;;;;;;-6.15;76.70;99729.98;493846;1143;65245;-64
2021/01/15 19:14:59;;;;;;;12.20;7.03;;;;;;;-6.25;76.40;99738.43;493650;1142;65133;-61
2021/01/15 19:25:03;;;;;;;9.77;6.73;;;;;;;-6.26;75.44;99726.50;493655;1143;65150;-64
2021/01/15 19:35:09;;;;;;;8.30;4.87;;;;;;;-6.30;75.18;99751.17;493563;1143;65116;-62
2021/01/15 19:45:14;;;;;;;12.90;7.03;;;;;;;-6.26;75.70;99750.37;494133;1144;65108;-61
2021/01/15 19:55:18;;;;;;;15.70;9.47;;;;;;;-6.24;74.99;99773.37;494391;1143;65235;-64
2021/01/15 20:05:22;;;;;;;12.37;6.73;;;;;;;-6.36;74.75;99784.37;494007;1144;65121;-61
2021/01/15 20:15:28;;;;;;;10.70;6.47;;;;;;;-6.47;75.01;99797.91;493811;1144;65182;-62
2021/01/15 20:25:32;;;;;;;12.60;7.75;;;;;;;-6.62;74.58;99796.06;493832;1144;65130;-62
2021/01/15 20:35:37;;;;;;;14.53;8.87;;;;;;;-6.79;74.99;99806.12;493927;1143;65159;-66
2021/01/15 20:45:41;;;;;;;16.03;8.60;;;;;;;-6.74;74.89;99806.16;494376;1144;65117;-62
2021/01/15 20:55:52;;;;;;;19.43;10.70;;;;;;;-6.82;74.75;99811.20;494231;1143;65301;-64
2021/01/15 21:05:56;;;;;;;12.93;6.77;;;;;;;-6.93;74.44;99818.73;493985;1143;65119;-64
2021/01/15 21:16:02;;;;;;;13.05;7.40;;;;;;;-7.00;74.35;99809.31;493571;1143;65104;-64
2021/01/15 21:26:09;;;;;;;12.10;6.63;;;;;;;-7.01;74.24;99810.16;493532;1143;65214;-63
2021/01/15 21:36:13;;;;;;;13.13;7.70;;;;;;;-6.98;73.96;99801.65;493574;1143;66172;-60
2021/01/15 21:46:17;;;;;;;18.00;9.30;;;;;;;-6.93;73.98;99810.23;494215;1143;65137;-61
2021/01/15 21:56:21;;;;;;;17.57;8.67;;;;;;;-6.99;73.60;99821.23;493731;1143;65417;-64
2021/01/15 22:06:25;;;;;;;17.03;8.07;;;;;;;-7.06;73.79;99822.86;493531;1143;65197;-63
2021/01/15 22:16:29;;;;;;;17.10;9.20;;;;;;;-7.01;73.47;99829.70;493535;1144;65112;-65
2021/01/15 22:26:33;;;;;;;19.80;9.57;;;;;;;-7.09;73.79;99811.75;494349;1143;65145;-63
2021/01/15 22:36:37;;;;;;;19.40;8.65;;;;;;;-6.91;73.50;99823.86;493844;1143;65127;-64
2021/01/15 22:46:41;;;;;;;19.93;10.17;;;;;;;-6.93;73.80;99833.21;493610;1143;65143;-63
2021/01/15 22:56:46;;;;;;;14.37;8.50;;;;;;;-6.97;73.62;99823.81;493701;1143;65122;-63
2021/01/15 23:06:50;;;;;;;18.60;10.53;;;;;;;-7.04;73.96;99808.41;493949;1143;65380;-62
2021/01/15 23:16:56;;;;;;;16.97;9.23;;;;;;;-7.18;74.14;99803.14;494039;1143;65124;-61
2021/01/15 23:27:01;;;;;;;18.87;8.80;;;;;;;-7.11;74.43;99793.02;494001;1144;65211;-62
2021/01/15 23:37:05;;;;;;;35.68;13.43;;;;;;;-7.00;74.56;99785.46;494283;1144;65215;-64
2021/01/15 23:47:09;;;;;;;40.10;16.40;;;;;;;-6.87;74.67;99781.35;494328;1143;65252;-62
2021/01/15 23:57:13;;;;;;;24.23;12.90;;;;;;;-6.65;74.57;99773.05;494222;1144;65452;-63
